sensor_id;sensor_type;location;lat;lon;timestamp;temperature;humidity
23377;DHT22;14353;46.070;13.222;2022-11-20T00:03:35;18.90;51.50
23377;DHT22;14353;46.070;13.222;2022-11-20T00:06:06;18.90;51.50
23377;DHT22;14353;46.070;13.222;2022-11-20T00:08:32;18.90;51.50
23377;DHT22;14353;46.070;13.222;2022-11-20T00:11:05;18.90;51.50
23377;DHT22;14353;46.070;13.222;2022-11-20T00:13:32;18.90;51.50
23377;DHT22;14353;46.070;13.222;2022-11-20T00:16:02;18.90;51.50
23377;DHT22;14353;46.070;13.222;2022-11-20T00:18:28;18.90;51.50
23377;DHT22;14353;46.070;13.222;2022-11-20T00:21:01;18.90;51.50
23377;DHT22;14353;46.070;13.222;2022-11-20T00:23:27;18.90;51.50
23377;DHT22;14353;46.070;13.222;2022-11-20T00:25:53;18.90;51.50
23377;DHT22;14353;46.070;13.222;2022-11-20T00:28:19;18.90;51.50
23377;DHT22;14353;46.070;13.222;2022-11-20T00:30:44;18.90;51.50
23377;DHT22;14353;46.070;13.222;2022-11-20T00:33:10;18.90;51.50
23377;DHT22;14353;46.070;13.222;2022-11-20T00:35:36;18.90;51.50
23377;DHT22;14353;46.070;13.222;2022-11-20T00:38:01;18.90;51.50
23377;DHT22;14353;46.070;13.222;2022-11-20T00:40:27;18.90;51.50
23377;DHT22;14353;46.070;13.222;2022-11-20T00:42:53;18.90;51.50
23377;DHT22;14353;46.070;13.222;2022-11-20T00:45:19;18.90;51.50
23377;DHT22;14353;46.070;13.222;2022-11-20T00:47:44;18.80;51.50
23377;DHT22;14353;46.070;13.222;2022-11-20T00:50:10;18.90;51.50
23377;DHT22;14353;46.070;13.222;2022-11-20T00:52:38;18.90;51.60
23377;DHT22;14353;46.070;13.222;2022-11-20T00:55:04;18.80;51.50
23377;DHT22;14353;46.070;13.222;2022-11-20T00:57:30;18.90;51.50
23377;DHT22;14353;46.070;13.222;2022-11-20T00:59:56;18.90;51.50
23377;DHT22;14353;46.070;13.222;2022-11-20T01:02:22;18.80;51.40
23377;DHT22;14353;46.070;13.222;2022-11-20T01:04:48;18.80;51.50
23377;DHT22;14353;46.070;13.222;2022-11-20T01:07:14;18.80;51.50
23377;DHT22;14353;46.070;13.222;2022-11-20T01:09:40;18.80;51.50
23377;DHT22;14353;46.070;13.222;2022-11-20T01:12:06;18.80;51.50
23377;DHT22;14353;46.070;13.222;2022-11-20T01:14:31;18.80;51.50
23377;DHT22;14353;46.070;13.222;2022-11-20T01:16:57;18.80;51.40
23377;DHT22;14353;46.070;13.222;2022-11-20T01:19:23;18.80;51.50
23377;DHT22;14353;46.070;13.222;2022-11-20T01:21:52;18.80;51.40
23377;DHT22;14353;46.070;13.222;2022-11-20T01:24:19;18.80;51.50
23377;DHT22;14353;46.070;13.222;2022-11-20T01:26:50;18.80;51.50
23377;DHT22;14353;46.070;13.222;2022-11-20T01:29:19;18.80;51.50
23377;DHT22;14353;46.070;13.222;2022-11-20T01:31:45;18.80;51.50
23377;DHT22;14353;46.070;13.222;2022-11-20T01:34:14;18.80;51.50
23377;DHT22;14353;46.070;13.222;2022-11-20T01:36:40;18.80;51.40
23377;DHT22;14353;46.070;13.222;2022-11-20T01:39:11;18.80;51.50
23377;DHT22;14353;46.070;13.222;2022-11-20T01:41:40;18.80;51.50
23377;DHT22;14353;46.070;13.222;2022-11-20T01:44:52;18.80;51.50
23377;DHT22;14353;46.070;13.222;2022-11-20T01:47:39;18.70;51.50
23377;DHT22;14353;46.070;13.222;2022-11-20T01:50:17;18.80;51.50
23377;DHT22;14353;46.070;13.222;2022-11-20T01:52:57;18.80;51.50
23377;DHT22;14353;46.070;13.222;2022-11-20T01:55:30;18.70;51.40
23377;DHT22;14353;46.070;13.222;2022-11-20T01:57:57;18.70;51.50
23377;DHT22;14353;46.070;13.222;2022-11-20T02:00:24;18.70;51.40
23377;DHT22;14353;46.070;13.222;2022-11-20T02:02:58;18.80;51.50
23377;DHT22;14353;46.070;13.222;2022-11-20T02:08:08;18.70;51.40
23377;DHT22;14353;46.070;13.222;2022-11-20T02:10:34;18.70;51.40
23377;DHT22;14353;46.070;13.222;2022-11-20T02:13:00;18.70;51.40
23377;DHT22;14353;46.070;13.222;2022-11-20T02:15:47;18.70;51.40
23377;DHT22;14353;46.070;13.222;2022-11-20T02:18:20;18.70;51.40
23377;DHT22;14353;46.070;13.222;2022-11-20T02:20:49;18.70;51.40
23377;DHT22;14353;46.070;13.222;2022-11-20T02:25:54;18.70;51.40
23377;DHT22;14353;46.070;13.222;2022-11-20T02:28:21;18.70;51.40
23377;DHT22;14353;46.070;13.222;2022-11-20T02:30:47;18.70;51.40
23377;DHT22;14353;46.070;13.222;2022-11-20T02:33:13;18.70;51.40
23377;DHT22;14353;46.070;13.222;2022-11-20T02:35:44;18.70;51.40
23377;DHT22;14353;46.070;13.222;2022-11-20T02:38:10;18.70;51.40
23377;DHT22;14353;46.070;13.222;2022-11-20T02:40:36;18.70;51.40
23377;DHT22;14353;46.070;13.222;2022-11-20T02:43:02;18.70;51.40
23377;DHT22;14353;46.070;13.222;2022-11-20T02:45:31;18.70;51.40
23377;DHT22;14353;46.070;13.222;2022-11-20T02:47:57;18.70;51.40
23377;DHT22;14353;46.070;13.222;2022-11-20T02:50:23;18.70;51.30
23377;DHT22;14353;46.070;13.222;2022-11-20T02:52:48;18.70;51.30
23377;DHT22;14353;46.070;13.222;2022-11-20T02:55:14;18.70;51.30
23377;DHT22;14353;46.070;13.222;2022-11-20T02:57:40;18.70;51.30
23377;DHT22;14353;46.070;13.222;2022-11-20T03:00:06;18.70;51.30
23377;DHT22;14353;46.070;13.222;2022-11-20T03:02:32;18.70;51.30
23377;DHT22;14353;46.070;13.222;2022-11-20T03:04:58;18.70;51.30
23377;DHT22;14353;46.070;13.222;2022-11-20T03:07:24;18.70;51.30
23377;DHT22;14353;46.070;13.222;2022-11-20T03:09:52;18.70;51.30
23377;DHT22;14353;46.070;13.222;2022-11-20T03:12:18;18.70;51.30
23377;DHT22;14353;46.070;13.222;2022-11-20T03:14:43;18.70;51.20
23377;DHT22;14353;46.070;13.222;2022-11-20T03:17:09;18.60;51.20
23377;DHT22;14353;46.070;13.222;2022-11-20T03:19:35;18.60;51.20
23377;DHT22;14353;46.070;13.222;2022-11-20T03:22:01;18.60;51.90
23377;DHT22;14353;46.070;13.222;2022-11-20T03:24:27;18.60;51.20
23377;DHT22;14353;46.070;13.222;2022-11-20T03:26:53;18.60;51.20
23377;DHT22;14353;46.070;13.222;2022-11-20T03:29:18;18.60;51.20
23377;DHT22;14353;46.070;13.222;2022-11-20T03:31:44;18.60;51.30
23377;DHT22;14353;46.070;13.222;2022-11-20T03:34:11;18.60;51.20
23377;DHT22;14353;46.070;13.222;2022-11-20T03:36:41;18.60;51.20
23377;DHT22;14353;46.070;13.222;2022-11-20T03:39:08;18.60;51.20
23377;DHT22;14353;46.070;13.222;2022-11-20T03:41:38;18.60;51.20
23377;DHT22;14353;46.070;13.222;2022-11-20T03:44:07;18.60;51.20
23377;DHT22;14353;46.070;13.222;2022-11-20T03:46:33;18.60;51.20
23377;DHT22;14353;46.070;13.222;2022-11-20T03:48:59;18.60;51.10
23377;DHT22;14353;46.070;13.222;2022-11-20T03:51:27;18.60;51.10
23377;DHT22;14353;46.070;13.222;2022-11-20T03:53:55;18.60;51.10
23377;DHT22;14353;46.070;13.222;2022-11-20T03:56:27;18.60;51.10
23377;DHT22;14353;46.070;13.222;2022-11-20T03:58:53;18.60;51.10
23377;DHT22;14353;46.070;13.222;2022-11-20T04:01:22;18.60;51.10
23377;DHT22;14353;46.070;13.222;2022-11-20T04:03:48;18.60;51.10
23377;DHT22;14353;46.070;13.222;2022-11-20T04:06:24;18.60;51.10
23377;DHT22;14353;46.070;13.222;2022-11-20T04:08:50;18.60;51.80
23377;DHT22;14353;46.070;13.222;2022-11-20T04:11:21;18.60;51.10
23377;DHT22;14353;46.070;13.222;2022-11-20T04:13:51;18.60;51.10
23377;DHT22;14353;46.070;13.222;2022-11-20T04:16:17;18.60;51.10
23377;DHT22;14353;46.070;13.222;2022-11-20T04:18:43;18.60;51.10
23377;DHT22;14353;46.070;13.222;2022-11-20T04:21:11;18.60;51.10
23377;DHT22;14353;46.070;13.222;2022-11-20T04:23:37;18.60;51.10
23377;DHT22;14353;46.070;13.222;2022-11-20T04:26:08;18.60;51.10
23377;DHT22;14353;46.070;13.222;2022-11-20T04:28:35;18.60;51.10
23377;DHT22;14353;46.070;13.222;2022-11-20T04:31:13;18.50;51.10
23377;DHT22;14353;46.070;13.222;2022-11-20T04:33:41;18.50;51.10
23377;DHT22;14353;46.070;13.222;2022-11-20T04:36:18;18.50;51.10
23377;DHT22;14353;46.070;13.222;2022-11-20T04:38:44;18.50;51.10
23377;DHT22;14353;46.070;13.222;2022-11-20T04:41:21;18.50;51.10
23377;DHT22;14353;46.070;13.222;2022-11-20T04:43:51;18.50;51.10
23377;DHT22;14353;46.070;13.222;2022-11-20T04:46:20;18.50;51.10
23377;DHT22;14353;46.070;13.222;2022-11-20T04:48:47;18.50;51.10
23377;DHT22;14353;46.070;13.222;2022-11-20T04:51:15;18.50;51.10
23377;DHT22;14353;46.070;13.222;2022-11-20T04:53:41;18.50;51.10
23377;DHT22;14353;46.070;13.222;2022-11-20T04:56:10;18.50;51.10
23377;DHT22;14353;46.070;13.222;2022-11-20T04:58:37;18.50;51.10
23377;DHT22;14353;46.070;13.222;2022-11-20T05:01:05;18.50;51.10
23377;DHT22;14353;46.070;13.222;2022-11-20T05:03:31;18.50;51.10
23377;DHT22;14353;46.070;13.222;2022-11-20T05:06:01;18.50;51.10
23377;DHT22;14353;46.070;13.222;2022-11-20T05:08:27;18.50;51.10
23377;DHT22;14353;46.070;13.222;2022-11-20T05:10:53;18.50;51.10
23377;DHT22;14353;46.070;13.222;2022-11-20T05:13:19;18.50;51.10
23377;DHT22;14353;46.070;13.222;2022-11-20T05:15:45;18.50;51.20
23377;DHT22;14353;46.070;13.222;2022-11-20T05:18:10;18.50;51.20
23377;DHT22;14353;46.070;13.222;2022-11-20T05:20:36;18.50;51.20
23377;DHT22;14353;46.070;13.222;2022-11-20T05:23:02;18.50;51.20
23377;DHT22;14353;46.070;13.222;2022-11-20T05:25:28;18.40;51.20
23377;DHT22;14353;46.070;13.222;2022-11-20T05:27:53;18.50;51.20
23377;DHT22;14353;46.070;13.222;2022-11-20T05:30:22;18.40;51.20
23377;DHT22;14353;46.070;13.222;2022-11-20T05:32:48;18.40;51.20
23377;DHT22;14353;46.070;13.222;2022-11-20T05:35:13;18.40;51.20
23377;DHT22;14353;46.070;13.222;2022-11-20T05:37:39;18.40;51.20
23377;DHT22;14353;46.070;13.222;2022-11-20T05:40:06;18.40;51.20
23377;DHT22;14353;46.070;13.222;2022-11-20T05:42:31;18.40;51.20
23377;DHT22;14353;46.070;13.222;2022-11-20T05:45:02;18.40;51.20
23377;DHT22;14353;46.070;13.222;2022-11-20T05:47:32;18.40;51.20
23377;DHT22;14353;46.070;13.222;2022-11-20T05:49:58;18.40;51.20
23377;DHT22;14353;46.070;13.222;2022-11-20T05:52:24;18.40;51.20
23377;DHT22;14353;46.070;13.222;2022-11-20T05:54:49;18.40;51.30
23377;DHT22;14353;46.070;13.222;2022-11-20T05:57:15;18.40;51.30
23377;DHT22;14353;46.070;13.222;2022-11-20T05:59:41;18.40;51.30
23377;DHT22;14353;46.070;13.222;2022-11-20T06:02:08;18.40;51.30
23377;DHT22;14353;46.070;13.222;2022-11-20T06:04:33;18.40;51.30
23377;DHT22;14353;46.070;13.222;2022-11-20T06:06:59;18.40;51.20
23377;DHT22;14353;46.070;13.222;2022-11-20T06:09:25;18.40;51.30
23377;DHT22;14353;46.070;13.222;2022-11-20T06:11:50;18.40;51.30
23377;DHT22;14353;46.070;13.222;2022-11-20T06:14:16;18.40;51.30
23377;DHT22;14353;46.070;13.222;2022-11-20T06:16:42;18.30;51.20
23377;DHT22;14353;46.070;13.222;2022-11-20T06:19:10;18.30;51.30
23377;DHT22;14353;46.070;13.222;2022-11-20T06:21:35;18.40;51.30
23377;DHT22;14353;46.070;13.222;2022-11-20T06:24:01;18.30;51.30
23377;DHT22;14353;46.070;13.222;2022-11-20T06:26:27;18.30;51.30
23377;DHT22;14353;46.070;13.222;2022-11-20T06:28:53;18.30;51.30
23377;DHT22;14353;46.070;13.222;2022-11-20T06:31:22;18.30;51.30
23377;DHT22;14353;46.070;13.222;2022-11-20T06:33:48;18.30;51.30
23377;DHT22;14353;46.070;13.222;2022-11-20T06:36:15;18.30;51.30
23377;DHT22;14353;46.070;13.222;2022-11-20T06:38:42;18.30;51.20
23377;DHT22;14353;46.070;13.222;2022-11-20T06:41:20;18.30;51.30
23377;DHT22;14353;46.070;13.222;2022-11-20T06:43:47;18.30;51.90
23377;DHT22;14353;46.070;13.222;2022-11-20T06:46:14;18.30;51.20
23377;DHT22;14353;46.070;13.222;2022-11-20T06:48:40;18.30;51.20
23377;DHT22;14353;46.070;13.222;2022-11-20T06:51:07;18.30;51.20
23377;DHT22;14353;46.070;13.222;2022-11-20T06:53:33;18.30;51.20
23377;DHT22;14353;46.070;13.222;2022-11-20T06:55:59;18.30;51.20
23377;DHT22;14353;46.070;13.222;2022-11-20T06:58:29;18.40;51.30
23377;DHT22;14353;46.070;13.222;2022-11-20T07:01:20;18.30;51.20
23377;DHT22;14353;46.070;13.222;2022-11-20T07:03:45;18.30;51.20
23377;DHT22;14353;46.070;13.222;2022-11-20T07:06:13;18.30;51.30
23377;DHT22;14353;46.070;13.222;2022-11-20T07:08:39;18.30;51.20
23377;DHT22;14353;46.070;13.222;2022-11-20T07:11:06;18.30;51.10
23377;DHT22;14353;46.070;13.222;2022-11-20T07:13:33;18.40;51.20
23377;DHT22;14353;46.070;13.222;2022-11-20T07:16:04;18.30;51.10
23377;DHT22;14353;46.070;13.222;2022-11-20T07:18:30;18.30;51.10
23377;DHT22;14353;46.070;13.222;2022-11-20T07:20:56;18.40;51.10
23377;DHT22;14353;46.070;13.222;2022-11-20T07:23:21;18.40;51.10
23377;DHT22;14353;46.070;13.222;2022-11-20T07:25:47;18.40;51.10
23377;DHT22;14353;46.070;13.222;2022-11-20T07:28:13;18.40;51.00
23377;DHT22;14353;46.070;13.222;2022-11-20T07:30:41;18.40;51.10
23377;DHT22;14353;46.070;13.222;2022-11-20T07:33:07;18.40;51.00
23377;DHT22;14353;46.070;13.222;2022-11-20T07:35:32;18.40;51.00
23377;DHT22;14353;46.070;13.222;2022-11-20T07:37:58;18.40;50.90
23377;DHT22;14353;46.070;13.222;2022-11-20T07:40:24;18.40;50.90
23377;DHT22;14353;46.070;13.222;2022-11-20T07:43:00;18.40;50.90
23377;DHT22;14353;46.070;13.222;2022-11-20T07:45:26;18.40;50.90
23377;DHT22;14353;46.070;13.222;2022-11-20T07:47:55;18.40;50.90
23377;DHT22;14353;46.070;13.222;2022-11-20T07:50:23;18.40;50.90
23377;DHT22;14353;46.070;13.222;2022-11-20T07:52:49;18.40;50.90
23377;DHT22;14353;46.070;13.222;2022-11-20T07:55:15;18.40;50.90
23377;DHT22;14353;46.070;13.222;2022-11-20T07:57:41;18.40;50.90
23377;DHT22;14353;46.070;13.222;2022-11-20T08:00:09;18.40;50.90
23377;DHT22;14353;46.070;13.222;2022-11-20T08:02:39;18.40;50.90
23377;DHT22;14353;46.070;13.222;2022-11-20T08:05:05;18.40;50.90
23377;DHT22;14353;46.070;13.222;2022-11-20T08:07:36;18.40;50.90
23377;DHT22;14353;46.070;13.222;2022-11-20T08:10:02;18.40;50.80
23377;DHT22;14353;46.070;13.222;2022-11-20T08:12:28;18.40;50.90
23377;DHT22;14353;46.070;13.222;2022-11-20T08:15:12;18.50;50.80
23377;DHT22;14353;46.070;13.222;2022-11-20T08:17:38;18.50;50.70
23377;DHT22;14353;46.070;13.222;2022-11-20T08:20:07;18.50;50.70
23377;DHT22;14353;46.070;13.222;2022-11-20T08:22:34;18.50;50.70
23377;DHT22;14353;46.070;13.222;2022-11-20T08:25:03;18.50;50.70
23377;DHT22;14353;46.070;13.222;2022-11-20T08:27:31;18.50;50.60
23377;DHT22;14353;46.070;13.222;2022-11-20T08:29:57;18.50;50.50
23377;DHT22;14353;46.070;13.222;2022-11-20T08:32:22;18.60;50.50
23377;DHT22;14353;46.070;13.222;2022-11-20T08:34:48;18.60;50.50
23377;DHT22;14353;46.070;13.222;2022-11-20T08:37:14;18.60;50.40
23377;DHT22;14353;46.070;13.222;2022-11-20T08:39:39;18.60;50.30
23377;DHT22;14353;46.070;13.222;2022-11-20T08:42:14;18.60;50.30
23377;DHT22;14353;46.070;13.222;2022-11-20T08:44:40;18.60;50.30
23377;DHT22;14353;46.070;13.222;2022-11-20T08:47:06;18.60;50.20
23377;DHT22;14353;46.070;13.222;2022-11-20T08:49:31;18.60;50.20
23377;DHT22;14353;46.070;13.222;2022-11-20T08:51:57;18.70;50.10
23377;DHT22;14353;46.070;13.222;2022-11-20T08:54:23;18.70;50.10
23377;DHT22;14353;46.070;13.222;2022-11-20T08:56:48;18.70;50.00
23377;DHT22;14353;46.070;13.222;2022-11-20T08:59:14;18.70;50.00
23377;DHT22;14353;46.070;13.222;2022-11-20T09:01:40;18.80;49.90
23377;DHT22;14353;46.070;13.222;2022-11-20T09:04:06;18.80;49.90
23377;DHT22;14353;46.070;13.222;2022-11-20T09:06:31;18.80;49.80
23377;DHT22;14353;46.070;13.222;2022-11-20T09:08:57;18.90;49.70
23377;DHT22;14353;46.070;13.222;2022-11-20T09:11:23;18.90;49.50
23377;DHT22;14353;46.070;13.222;2022-11-20T09:13:48;19.00;49.50
23377;DHT22;14353;46.070;13.222;2022-11-20T09:16:14;19.00;49.30
23377;DHT22;14353;46.070;13.222;2022-11-20T09:18:40;19.10;49.20
23377;DHT22;14353;46.070;13.222;2022-11-20T09:21:10;19.20;49.10
23377;DHT22;14353;46.070;13.222;2022-11-20T09:23:37;19.20;48.80
23377;DHT22;14353;46.070;13.222;2022-11-20T09:26:08;19.30;48.70
23377;DHT22;14353;46.070;13.222;2022-11-20T09:28:37;19.30;48.50
23377;DHT22;14353;46.070;13.222;2022-11-20T09:31:23;19.40;48.50
23377;DHT22;14353;46.070;13.222;2022-11-20T09:33:49;19.50;48.20
23377;DHT22;14353;46.070;13.222;2022-11-20T09:36:15;19.60;48.00
23377;DHT22;14353;46.070;13.222;2022-11-20T09:38:42;19.60;47.90
23377;DHT22;14353;46.070;13.222;2022-11-20T09:41:22;19.70;47.80
23377;DHT22;14353;46.070;13.222;2022-11-20T09:47:01;19.80;47.50
23377;DHT22;14353;46.070;13.222;2022-11-20T09:55:10;20.00;47.00
23377;DHT22;14353;46.070;13.222;2022-11-20T09:57:40;20.10;46.90
23377;DHT22;14353;46.070;13.222;2022-11-20T10:00:10;20.20;46.60
23377;DHT22;14353;46.070;13.222;2022-11-20T10:03:00;20.30;46.40
23377;DHT22;14353;46.070;13.222;2022-11-20T10:05:37;20.40;46.30
23377;DHT22;14353;46.070;13.222;2022-11-20T10:18:58;20.80;45.50
23377;DHT22;14353;46.070;13.222;2022-11-20T10:21:52;20.80;45.50
23377;DHT22;14353;46.070;13.222;2022-11-20T10:30:03;21.00;45.00
23377;DHT22;14353;46.070;13.222;2022-11-20T10:32:39;21.00;44.80
23377;DHT22;14353;46.070;13.222;2022-11-20T10:35:21;21.10;45.40
23377;DHT22;14353;46.070;13.222;2022-11-20T10:37:50;21.10;44.70
23377;DHT22;14353;46.070;13.222;2022-11-20T10:40:24;21.10;44.60
23377;DHT22;14353;46.070;13.222;2022-11-20T10:43:04;21.20;44.60
23377;DHT22;14353;46.070;13.222;2022-11-20T10:45:40;21.20;44.50
23377;DHT22;14353;46.070;13.222;2022-11-20T10:48:22;21.30;44.40
23377;DHT22;14353;46.070;13.222;2022-11-20T10:56:16;21.30;44.20
23377;DHT22;14353;46.070;13.222;2022-11-20T11:01:56;21.30;44.20
23377;DHT22;14353;46.070;13.222;2022-11-20T11:04:39;21.40;44.20
23377;DHT22;14353;46.070;13.222;2022-11-20T11:07:16;21.40;43.90
23377;DHT22;14353;46.070;13.222;2022-11-20T11:09:52;21.50;43.90
23377;DHT22;14353;46.070;13.222;2022-11-20T11:12:20;21.50;43.80
23377;DHT22;14353;46.070;13.222;2022-11-20T11:14:51;21.60;43.60
23377;DHT22;14353;46.070;13.222;2022-11-20T11:17:35;21.70;43.30
23377;DHT22;14353;46.070;13.222;2022-11-20T11:22:33;22.20;42.40
23377;DHT22;14353;46.070;13.222;2022-11-20T11:25:00;22.50;41.80
23377;DHT22;14353;46.070;13.222;2022-11-20T11:27:30;22.80;41.30
23377;DHT22;14353;46.070;13.222;2022-11-20T11:30:13;23.00;40.70
23377;DHT22;14353;46.070;13.222;2022-11-20T11:32:39;23.30;40.20
23377;DHT22;14353;46.070;13.222;2022-11-20T11:35:11;23.60;39.80
23377;DHT22;14353;46.070;13.222;2022-11-20T11:37:48;23.80;39.20
23377;DHT22;14353;46.070;13.222;2022-11-20T11:40:15;24.10;38.70
23377;DHT22;14353;46.070;13.222;2022-11-20T11:42:52;24.30;38.40
23377;DHT22;14353;46.070;13.222;2022-11-20T11:45:18;24.40;38.30
23377;DHT22;14353;46.070;13.222;2022-11-20T11:47:46;24.40;38.10
23377;DHT22;14353;46.070;13.222;2022-11-20T11:50:25;24.60;38.00
23377;DHT22;14353;46.070;13.222;2022-11-20T12:06:34;23.80;39.30
23377;DHT22;14353;46.070;13.222;2022-11-20T12:09:09;23.60;39.80
23377;DHT22;14353;46.070;13.222;2022-11-20T12:11:43;23.40;40.20
23377;DHT22;14353;46.070;13.222;2022-11-20T12:14:29;23.20;40.50
23377;DHT22;14353;46.070;13.222;2022-11-20T12:16:56;23.00;40.90
23377;DHT22;14353;46.070;13.222;2022-11-20T12:19:23;22.80;41.50
23377;DHT22;14353;46.070;13.222;2022-11-20T12:22:30;22.70;41.70
23377;DHT22;14353;46.070;13.222;2022-11-20T12:25:10;22.60;41.90
23377;DHT22;14353;46.070;13.222;2022-11-20T12:30:14;22.40;42.20
23377;DHT22;14353;46.070;13.222;2022-11-20T12:36:04;22.40;42.40
23377;DHT22;14353;46.070;13.222;2022-11-20T12:41:43;22.50;42.40
23377;DHT22;14353;46.070;13.222;2022-11-20T12:50:13;22.60;42.00
23377;DHT22;14353;46.070;13.222;2022-11-20T12:56:31;22.60;41.80
23377;DHT22;14353;46.070;13.222;2022-11-20T13:06:54;22.20;42.80
23377;DHT22;14353;46.070;13.222;2022-11-20T13:09:21;22.10;43.00
23377;DHT22;14353;46.070;13.222;2022-11-20T13:12:04;22.00;43.10
23377;DHT22;14353;46.070;13.222;2022-11-20T13:14:50;22.00;43.20
23377;DHT22;14353;46.070;13.222;2022-11-20T13:18:27;22.00;43.30
23377;DHT22;14353;46.070;13.222;2022-11-20T13:20:22;21.90;43.40
23377;DHT22;14353;46.070;13.222;2022-11-20T13:22:50;21.90;43.50
23377;DHT22;14353;46.070;13.222;2022-11-20T13:27:50;22.00;43.50
23377;DHT22;14353;46.070;13.222;2022-11-20T13:30:18;22.10;43.20
23377;DHT22;14353;46.070;13.222;2022-11-20T13:33:01;22.10;43.30
23377;DHT22;14353;46.070;13.222;2022-11-20T13:35:37;22.20;43.20
23377;DHT22;14353;46.070;13.222;2022-11-20T13:38:11;22.30;43.00
23377;DHT22;14353;46.070;13.222;2022-11-20T13:40:50;22.30;42.90
23377;DHT22;14353;46.070;13.222;2022-11-20T13:46:03;22.30;43.10
23377;DHT22;14353;46.070;13.222;2022-11-20T13:48:38;22.20;43.30
23377;DHT22;14353;46.070;13.222;2022-11-20T13:51:15;22.20;43.40
23377;DHT22;14353;46.070;13.222;2022-11-20T13:57:05;22.10;43.70
23377;DHT22;14353;46.070;13.222;2022-11-20T14:02:25;22.00;43.90
23377;DHT22;14353;46.070;13.222;2022-11-20T14:04:57;22.00;44.00
23377;DHT22;14353;46.070;13.222;2022-11-20T14:07:31;22.00;44.10
23377;DHT22;14353;46.070;13.222;2022-11-20T14:09:57;22.00;44.20
23377;DHT22;14353;46.070;13.222;2022-11-20T14:12:32;22.00;44.20
23377;DHT22;14353;46.070;13.222;2022-11-20T14:14:58;22.00;44.20
23377;DHT22;14353;46.070;13.222;2022-11-20T14:20:01;22.00;44.20
23377;DHT22;14353;46.070;13.222;2022-11-20T14:22:28;22.00;44.20
23377;DHT22;14353;46.070;13.222;2022-11-20T14:27:40;22.00;44.30
23377;DHT22;14353;46.070;13.222;2022-11-20T14:30:20;22.00;44.30
23377;DHT22;14353;46.070;13.222;2022-11-20T14:32:47;22.00;44.30
23377;DHT22;14353;46.070;13.222;2022-11-20T14:35:20;22.00;44.40
23377;DHT22;14353;46.070;13.222;2022-11-20T14:37:47;22.00;44.40
23377;DHT22;14353;46.070;13.222;2022-11-20T14:42:48;22.00;44.50
23377;DHT22;14353;46.070;13.222;2022-11-20T14:45:15;22.00;44.50
23377;DHT22;14353;46.070;13.222;2022-11-20T14:47:42;21.90;44.50
23377;DHT22;14353;46.070;13.222;2022-11-20T14:50:26;21.90;44.60
23377;DHT22;14353;46.070;13.222;2022-11-20T14:53:00;21.90;44.60
23377;DHT22;14353;46.070;13.222;2022-11-20T14:55:37;21.90;44.60
23377;DHT22;14353;46.070;13.222;2022-11-20T14:58:24;21.90;44.70
23377;DHT22;14353;46.070;13.222;2022-11-20T15:03:37;21.90;44.80
23377;DHT22;14353;46.070;13.222;2022-11-20T15:06:05;21.90;44.80
23377;DHT22;14353;46.070;13.222;2022-11-20T15:08:31;21.90;44.80
23377;DHT22;14353;46.070;13.222;2022-11-20T15:10:57;21.90;44.90
23377;DHT22;14353;46.070;13.222;2022-11-20T15:13:31;21.90;45.00
23377;DHT22;14353;46.070;13.222;2022-11-20T15:16:00;21.80;45.00
23377;DHT22;14353;46.070;13.222;2022-11-20T15:18:32;21.80;45.00
23377;DHT22;14353;46.070;13.222;2022-11-20T15:21:02;21.70;45.00
23377;DHT22;14353;46.070;13.222;2022-11-20T15:23:33;21.60;45.00
23377;DHT22;14353;46.070;13.222;2022-11-20T15:26:09;21.60;45.80
23377;DHT22;14353;46.070;13.222;2022-11-20T15:28:37;21.50;45.30
23377;DHT22;14353;46.070;13.222;2022-11-20T15:31:05;21.50;45.40
23377;DHT22;14353;46.070;13.222;2022-11-20T15:33:32;21.40;45.40
23377;DHT22;14353;46.070;13.222;2022-11-20T15:35:58;21.30;45.50
23377;DHT22;14353;46.070;13.222;2022-11-20T15:38:24;21.30;45.70
23377;DHT22;14353;46.070;13.222;2022-11-20T15:40:50;21.30;45.80
23377;DHT22;14353;46.070;13.222;2022-11-20T15:43:19;21.20;45.90
23377;DHT22;14353;46.070;13.222;2022-11-20T15:45:53;21.20;45.90
23377;DHT22;14353;46.070;13.222;2022-11-20T15:48:25;21.10;46.00
23377;DHT22;14353;46.070;13.222;2022-11-20T15:53:21;21.00;46.00
23377;DHT22;14353;46.070;13.222;2022-11-20T15:55:47;21.00;46.10
23377;DHT22;14353;46.070;13.222;2022-11-20T15:58:13;20.90;46.20
23377;DHT22;14353;46.070;13.222;2022-11-20T16:00:38;20.90;46.30
23377;DHT22;14353;46.070;13.222;2022-11-20T16:03:09;20.90;46.50
23377;DHT22;14353;46.070;13.222;2022-11-20T16:05:35;20.80;46.50
23377;DHT22;14353;46.070;13.222;2022-11-20T16:08:01;20.80;46.60
23377;DHT22;14353;46.070;13.222;2022-11-20T16:10:29;20.70;46.60
23377;DHT22;14353;46.070;13.222;2022-11-20T16:12:55;20.70;46.70
23377;DHT22;14353;46.070;13.222;2022-11-20T16:15:39;20.70;46.90
23377;DHT22;14353;46.070;13.222;2022-11-20T16:18:13;20.60;46.90
23377;DHT22;14353;46.070;13.222;2022-11-20T16:20:42;20.60;47.00
23377;DHT22;14353;46.070;13.222;2022-11-20T16:23:08;20.50;47.10
23377;DHT22;14353;46.070;13.222;2022-11-20T16:25:34;20.50;47.20
23377;DHT22;14353;46.070;13.222;2022-11-20T16:28:00;20.40;47.20
23377;DHT22;14353;46.070;13.222;2022-11-20T16:30:26;20.40;47.40
23377;DHT22;14353;46.070;13.222;2022-11-20T16:32:52;20.30;47.50
23377;DHT22;14353;46.070;13.222;2022-11-20T16:35:18;20.30;47.50
23377;DHT22;14353;46.070;13.222;2022-11-20T16:37:43;20.30;47.50
23377;DHT22;14353;46.070;13.222;2022-11-20T16:40:10;20.20;47.50
23377;DHT22;14353;46.070;13.222;2022-11-20T16:42:37;20.20;47.60
23377;DHT22;14353;46.070;13.222;2022-11-20T16:45:04;20.20;47.70
23377;DHT22;14353;46.070;13.222;2022-11-20T16:47:33;20.20;47.70
23377;DHT22;14353;46.070;13.222;2022-11-20T16:50:00;20.20;47.80
23377;DHT22;14353;46.070;13.222;2022-11-20T16:52:26;20.10;47.70
23377;DHT22;14353;46.070;13.222;2022-11-20T16:54:52;20.10;47.80
23377;DHT22;14353;46.070;13.222;2022-11-20T16:57:17;20.10;47.90
23377;DHT22;14353;46.070;13.222;2022-11-20T16:59:46;20.00;48.50
23377;DHT22;14353;46.070;13.222;2022-11-20T17:02:12;20.00;47.90
23377;DHT22;14353;46.070;13.222;2022-11-20T17:04:38;20.00;48.00
23377;DHT22;14353;46.070;13.222;2022-11-20T17:07:04;20.00;48.00
23377;DHT22;14353;46.070;13.222;2022-11-20T17:09:29;20.00;48.00
23377;DHT22;14353;46.070;13.222;2022-11-20T17:11:55;20.00;48.00
23377;DHT22;14353;46.070;13.222;2022-11-20T17:14:21;19.90;48.10
23377;DHT22;14353;46.070;13.222;2022-11-20T17:16:49;19.90;48.10